Time;durP1;ratioP1;P1;durP2;ratioP2;P2;SDS_P1;SDS_P2;PMS_P1;PMS_P2;Temp;Humidity;BMP_temperature;BMP_pressure;BME280_temperature;BME280_humidity;BME280_pressure;Samples;Min_cycle;Max_cycle;Signal;HPM_P1;HPM_P2
2021/11/16 00:04:09;;;;;;;47.10;25.50;;;;;;;6.37;78.82;101110.54;229126;1199;139567;-72
2021/11/16 00:09:13;;;;;;;51.20;27.50;;;;;;;6.44;78.58;101104.70;228566;1199;141275;-71
2021/11/16 00:14:16;;;;;;;39.60;23.40;;;;;;;6.46;78.76;101097.39;228951;1199;141044;-71
2021/11/16 00:19:28;;;;;;;53.50;29.60;;;;;;;6.43;78.58;101087.52;226865;1199;230550;-72
2021/11/16 00:25:19;;;;;;;46.80;28.20;;;;;;;6.46;78.63;101083.66;226804;1200;140172;-72
2021/11/16 00:30:01;;;;;;;51.30;30.40;;;;;;;6.48;78.77;101086.63;226368;1199;140389;-74
2021/11/16 00:35:05;;;;;;;52.20;29.30;;;;;;;6.47;78.50;101088.98;226834;1200;153443;-70
2021/11/16 00:40:18;;;;;;;51.30;27.30;;;;;;;6.48;78.54;101091.16;226656;1199;142004;-72
2021/11/16 00:45:26;;;;;;;60.40;31.80;;;;;;;6.52;78.61;101093.40;227258;1199;143396;-72
2021/11/16 00:50:31;;;;;;;60.80;32.20;;;;;;;6.52;78.91;101089.61;226758;1199;141481;-72
2021/11/16 00:55:35;;;;;;;58.70;28.10;;;;;;;6.52;78.69;101090.05;226202;1199;140372;-72
2021/11/16 01:00:38;;;;;;;48.50;27.80;;;;;;;6.49;78.65;101084.93;227190;1200;140866;-72
2021/11/16 01:05:49;;;;;;;50.50;28.60;;;;;;;6.55;78.84;101082.45;226819;1199;143069;-73
2021/11/16 01:10:55;;;;;;;49.50;27.30;;;;;;;6.54;78.60;101075.16;226750;1200;139543;-73
2021/11/16 01:16:01;;;;;;;56.20;35.00;;;;;;;6.44;78.73;101073.01;226383;1199;139994;-72
2021/11/16 01:21:17;;;;;;;;;;;;;;;;;;;;;
2021/11/16 01:26:44;;;;;;;54.50;28.90;;;;;;;6.50;78.50;101074.04;226725;1200;140379;-71
2021/11/16 01:31:50;;;;;;;56.60;30.00;;;;;;;6.48;78.59;101065.90;227384;1199;141239;-75
2021/11/16 01:36:55;;;;;;;49.60;28.70;;;;;;;6.47;78.60;101061.63;227961;1199;140631;-74
2021/11/16 01:42:10;;;;;;;56.50;29.90;;;;;;;6.44;78.44;101058.56;228452;1200;140253;-72
2021/11/16 01:47:14;;;;;;;61.10;33.10;;;;;;;6.42;77.81;101051.73;226508;1199;140375;-72
2021/11/16 01:52:21;;;;;;;49.90;27.80;;;;;;;6.37;78.14;101054.83;228864;1199;140079;-72
2021/11/16 01:57:32;;;;;;;56.00;31.00;;;;;;;6.32;78.13;101049.73;228827;1199;139903;-70
2021/11/16 02:02:35;;;;;;;62.40;32.70;;;;;;;6.34;77.90;101037.66;227939;1199;140568;-72
2021/11/16 02:07:45;;;;;;;55.40;28.80;;;;;;;6.38;77.99;101029.50;229010;1199;140784;-72
2021/11/16 02:12:52;;;;;;;58.00;28.50;;;;;;;6.36;78.36;101026.33;229218;1199;139421;-72
2021/11/16 02:18:09;;;;;;;69.40;32.10;;;;;;;6.38;78.40;101020.23;229050;1199;140448;-73
2021/11/16 02:23:13;;;;;;;56.00;31.20;;;;;;;6.41;77.93;101014.27;227161;1199;140126;-71
2021/11/16 02:28:30;;;;;;;56.20;29.20;;;;;;;6.35;77.93;101003.30;228032;1199;140477;-76
2021/11/16 02:33:34;;;;;;;60.00;31.50;;;;;;;6.28;77.86;100997.98;228217;1199;140761;-75
2021/11/16 02:38:40;;;;;;;67.00;31.70;;;;;;;6.30;78.29;100997.56;227423;1199;140822;-72
2021/11/16 02:43:43;;;;;;;63.10;32.50;;;;;;;6.28;78.04;100994.04;228027;1199;140574;-70
2021/11/16 02:48:46;;;;;;;59.20;29.50;;;;;;;6.31;78.15;100992.27;227316;1200;140782;-70
2021/11/16 02:53:50;;;;;;;65.20;32.60;;;;;;;6.39;78.48;101000.19;226395;1200;140114;-71
2021/11/16 02:58:56;;;;;;;56.60;31.50;;;;;;;6.38;78.14;100991.48;227582;1199;141448;-72
2021/11/16 03:03:59;;;;;;;51.70;28.00;;;;;;;6.31;78.24;100988.23;226494;1200;140193;-71
2021/11/16 03:09:25;;;;;;;61.10;31.50;;;;;;;6.27;78.49;100983.13;226843;1200;142000;-71
2021/11/16 03:14:34;;;;;;;70.70;35.00;;;;;;;6.27;78.28;100982.20;226875;1187;140289;-74
2021/11/16 03:19:41;;;;;;;56.60;29.90;;;;;;;6.27;78.61;100982.77;226952;1199;140310;-70
2021/11/16 03:24:46;;;;;;;63.60;28.40;;;;;;;6.28;78.43;100984.14;227470;1199;140063;-73
2021/11/16 03:29:50;;;;;;;68.80;34.10;;;;;;;6.26;78.47;100982.96;227616;1199;141840;-74
2021/11/16 03:34:52;;;;;;;60.80;33.10;;;;;;;6.21;78.69;100977.40;227711;1199;140922;-73
2021/11/16 03:39:56;;;;;;;66.20;34.50;;;;;;;6.21;78.79;100982.82;227868;1199;141489;-73
2021/11/16 03:44:58;;;;;;;58.00;28.60;;;;;;;6.19;78.27;100987.84;227158;1199;140609;-72
2021/11/16 03:50:01;;;;;;;60.10;30.60;;;;;;;6.20;78.08;100984.98;226392;1199;140941;-72
2021/11/16 03:55:04;;;;;;;60.10;31.50;;;;;;;6.22;78.87;100980.27;229300;1200;141043;-72
2021/11/16 04:00:11;;;;;;;71.40;32.80;;;;;;;6.28;78.90;100986.75;227135;1194;141727;-69
2021/11/16 04:05:15;;;;;;;62.80;30.80;;;;;;;6.28;78.98;100987.67;227914;1199;249852;-77
2021/11/16 04:10:18;;;;;;;59.90;28.70;;;;;;;6.27;78.59;100987.52;229066;1199;141457;-75
2021/11/16 04:15:26;;;;;;;64.50;34.20;;;;;;;6.28;78.39;100990.36;227751;1199;222188;-70
2021/11/16 04:20:39;;;;;;;57.50;29.80;;;;;;;6.27;78.77;100988.48;228752;1199;139785;-72
2021/11/16 04:25:46;;;;;;;58.40;30.00;;;;;;;6.24;78.39;100983.03;227377;1199;140690;-75
2021/11/16 04:30:50;;;;;;;63.70;32.00;;;;;;;6.16;78.58;100986.06;226403;1199;139515;-76
2021/11/16 04:35:53;;;;;;;59.00;28.00;;;;;;;6.17;78.68;100989.70;227823;1199;139657;-73
2021/11/16 04:40:58;;;;;;;60.40;33.40;;;;;;;6.23;78.68;100990.22;226622;1199;140778;-71
2021/11/16 04:46:05;;;;;;;64.80;31.70;;;;;;;6.24;78.88;100991.54;227040;1200;141555;-71
2021/11/16 05:08:01;;;;;;;59.40;31.80;;;;;;;6.23;79.15;100994.59;226838;1199;140585;-71
2021/11/16 05:13:09;;;;;;;66.90;31.70;;;;;;;6.23;78.78;100992.05;227472;1199;139956;-72
2021/11/16 05:18:12;;;;;;;59.00;28.70;;;;;;;6.18;78.64;100987.63;227681;1199;140113;-70
2021/11/16 05:23:17;;;;;;;65.10;34.30;;;;;;;6.24;79.14;100989.06;227173;1199;141150;-76
2021/11/16 05:28:44;;;;;;;71.00;36.00;;;;;;;6.27;79.01;100992.75;226620;1199;140735;-73
2021/11/16 05:33:49;;;;;;;60.80;31.20;;;;;;;6.29;78.88;100990.39;228107;1199;140434;-71
2021/11/16 05:38:54;;;;;;;66.80;30.50;;;;;;;6.28;79.03;100994.80;228134;1199;139850;-72
2021/11/16 05:43:58;;;;;;;73.00;34.80;;;;;;;6.30;78.67;100997.03;227524;1199;142723;-76
2021/11/16 05:49:02;;;;;;;61.00;31.40;;;;;;;6.28;78.61;101002.52;226562;1199;140561;-69
2021/11/16 05:54:06;;;;;;;55.40;29.50;;;;;;;6.20;78.79;101003.05;227963;1199;144562;-77
2021/11/16 05:59:10;;;;;;;55.80;28.00;;;;;;;6.17;78.97;101010.74;227428;1199;139883;-71
2021/11/16 06:04:13;;;;;;;64.80;31.80;;;;;;;6.23;78.73;101012.50;228502;1200;141958;-73
2021/11/16 06:09:15;;;;;;;69.70;29.70;;;;;;;6.24;78.84;101010.08;226845;1199;140991;-72
2021/11/16 06:14:39;;;;;;;55.30;29.30;;;;;;;6.27;79.01;101004.40;228833;1199;139862;-71
2021/11/16 06:19:43;;;;;;;56.70;27.70;;;;;;;6.29;79.21;100998.89;228686;1199;141396;-73
2021/11/16 06:24:46;;;;;;;68.10;34.20;;;;;;;6.29;78.57;100995.55;229054;1199;142403;-74
2021/11/16 06:29:49;;;;;;;76.80;36.10;;;;;;;6.28;78.65;100995.46;228778;1199;139628;-76
2021/11/16 06:34:52;;;;;;;70.90;34.80;;;;;;;6.28;78.49;100998.67;227690;1199;140145;-73
2021/11/16 06:39:58;;;;;;;71.20;33.20;;;;;;;6.30;78.85;101000.22;227901;1199;140377;-70
2021/11/16 06:45:08;;;;;;;73.30;37.60;;;;;;;6.32;78.33;100999.41;227797;1200;140693;-70
2021/11/16 06:50:16;;;;;;;67.70;33.70;;;;;;;6.31;78.71;100995.60;226535;1199;142528;-71
2021/11/16 06:56:01;;;;;;;52.00;28.50;;;;;;;6.29;79.04;100993.77;228151;1199;141516;-74
2021/11/16 07:01:27;;;;;;;85.20;35.10;;;;;;;6.29;79.03;100997.96;226944;1199;140228;-71
2021/11/16 07:06:30;;;;;;;68.50;36.50;;;;;;;6.34;78.74;100995.98;226311;1200;141350;-69
2021/11/16 07:12:02;;;;;;;70.50;36.20;;;;;;;6.33;78.82;100987.69;226532;1200;144567;-68
2021/11/16 07:17:11;;;;;;;72.50;35.90;;;;;;;6.35;79.03;100982.97;227057;1200;140743;-76
2021/11/16 07:22:21;;;;;;;66.10;30.80;;;;;;;6.40;79.29;100978.30;226756;1199;139775;-70
2021/11/16 07:27:54;;;;;;;64.60;34.00;;;;;;;6.47;79.11;100968.60;226591;1200;140323;-71
2021/11/16 07:33:12;;;;;;;69.70;33.50;;;;;;;6.56;79.32;100965.74;227798;1199;141040;-71
2021/11/16 07:38:22;;;;;;;70.10;32.20;;;;;;;6.61;79.31;100966.80;226931;1199;141111;-69
2021/11/16 07:43:44;;;;;;;68.90;31.50;;;;;;;6.65;79.10;100969.28;227149;1199;139837;-70
2021/11/16 07:48:48;;;;;;;62.00;31.50;;;;;;;6.77;79.16;100968.40;227478;1199;140312;-71
2021/11/16 07:53:53;;;;;;;55.70;27.40;;;;;;;6.87;79.11;100970.80;228431;1200;139482;-72
2021/11/16 07:59:23;;;;;;;57.60;27.80;;;;;;;6.84;78.84;100969.14;228818;1199;141036;-71
2021/11/16 08:09:56;;;;;;;67.60;32.70;;;;;;;6.94;79.17;100965.10;229080;1199;141700;-72
2021/11/16 08:15:04;;;;;;;59.30;28.50;;;;;;;6.97;78.73;100963.55;229005;1199;139566;-73
2021/11/16 08:20:17;;;;;;;57.40;27.50;;;;;;;7.01;78.36;100959.14;228881;1199;142864;-72
2021/11/16 08:25:23;;;;;;;57.20;27.50;;;;;;;7.02;77.89;100957.58;228847;1199;141536;-71
2021/11/16 08:30:27;;;;;;;58.90;30.80;;;;;;;7.00;78.60;100956.26;226470;1200;141621;-69
2021/11/16 08:35:36;;;;;;;57.80;28.50;;;;;;;7.05;78.64;100946.19;226543;1199;142496;-72
2021/11/16 08:41:00;;;;;;;;;;;;;;;;;;;;;
2021/11/16 08:46:10;;;;;;;68.80;34.40;;;;;;;7.14;78.40;100941.88;227411;1200;139786;-71
2021/11/16 08:51:17;;;;;;;192.70;79.90;;;;;;;7.18;78.52;100944.39;228214;1200;141343;-70
2021/11/16 08:56:27;;;;;;;91.40;53.90;;;;;;;7.22;78.43;100936.94;226753;1200;140216;-75
2021/11/16 09:02:24;;;;;;;56.80;28.40;;;;;;;7.29;78.00;100933.57;226524;1199;139801;-72
2021/11/16 09:07:30;;;;;;;62.20;34.10;;;;;;;7.36;78.49;100938.34;226673;1200;160498;-69
2021/11/16 09:13:08;;;;;;;54.50;26.80;;;;;;;7.40;78.23;100938.48;226620;1200;140809;-69
2021/11/16 09:18:41;;;;;;;;;;;;;;;;;;;;;
2021/11/16 09:23:55;;;;;;;56.00;29.60;;;;;;;7.43;77.87;100932.85;227471;1199;140912;-72
2021/11/16 09:29:01;;;;;;;60.40;30.80;;;;;;;7.51;78.20;100925.73;227320;1200;142036;-70
2021/11/16 09:34:40;;;;;;;54.80;26.90;;;;;;;7.59;77.87;100930.44;227208;1189;139610;-71
2021/11/16 09:39:49;;;;;;;59.30;30.10;;;;;;;7.65;78.13;100935.52;227535;1193;140387;-70
2021/11/16 09:44:58;;;;;;;63.70;31.10;;;;;;;7.70;78.09;100936.87;227455;1200;140372;-70
2021/11/16 09:50:06;;;;;;;63.10;29.40;;;;;;;7.80;77.82;100932.30;226803;1200;140017;-70
2021/11/16 09:55:52;;;;;;;63.40;31.90;;;;;;;7.85;77.83;100927.79;226197;1200;139712;-72
2021/11/16 10:00:55;;;;;;;62.70;34.10;;;;;;;7.86;77.63;100921.80;226831;1199;139831;-72
2021/11/16 10:05:58;;;;;;;54.30;26.90;;;;;;;7.87;77.66;100921.73;228651;1200;139576;-73
2021/11/16 10:11:02;;;;;;;58.40;28.60;;;;;;;7.86;77.48;100919.34;228894;1199;139412;-73
2021/11/16 10:16:07;;;;;;;69.80;33.80;;;;;;;7.94;77.15;100914.00;229112;1199;141507;-74
2021/11/16 10:21:14;;;;;;;58.20;28.60;;;;;;;7.96;77.13;100904.85;227851;1200;141413;-75
2021/11/16 10:26:17;;;;;;;;;;;;;;;8.01;77.20;100893.22;227057;1200;141180;-70
2021/11/16 10:31:45;;;;;;;44.70;25.50;;;;;;;7.99;77.11;100888.95;228958;1200;126248;-70
2021/11/16 10:37:03;;;;;;;53.10;26.70;;;;;;;8.07;76.92;100888.17;227203;1199;140047;-70
2021/11/16 10:42:16;;;;;;;56.00;27.20;;;;;;;8.11;77.04;100878.90;228113;1199;142019;-72
2021/11/16 10:47:37;;;;;;;60.50;28.80;;;;;;;8.17;76.90;100867.92;226530;1199;140314;-68
2021/11/16 10:52:45;;;;;;;51.60;25.20;;;;;;;8.23;76.77;100863.57;227608;1199;141538;-69
2021/11/16 10:58:24;;;;;;;62.90;32.10;;;;;;;8.32;76.57;100860.59;227777;1200;140827;-69
2021/11/16 11:04:09;;;;;;;52.30;29.50;;;;;;;8.40;76.59;100850.94;226394;1200;140184;-70
2021/11/16 11:09:17;;;;;;;49.70;26.50;;;;;;;8.52;76.79;100842.23;226744;1199;140605;-71
2021/11/16 11:15:12;;;;;;;55.50;27.00;;;;;;;8.63;76.58;100840.77;227098;1199;140277;-72
2021/11/16 11:20:20;;;;;;;53.10;27.90;;;;;;;8.75;76.33;100839.60;227366;1200;140129;-72
2021/11/16 11:31:02;;;;;;;65.10;29.90;;;;;;;8.91;76.05;100821.91;227077;1199;139459;-72
2021/11/16 11:36:26;;;;;;;54.90;28.70;;;;;;;9.01;75.92;100819.77;227380;1199;143309;-71
2021/11/16 11:42:16;;;;;;;;;;;;;;;;;;;;;
2021/11/16 11:47:52;;;;;;;55.50;30.00;;;;;;;9.05;75.67;100804.85;227555;1200;140849;-71
2021/11/16 11:52:55;;;;;;;66.30;31.30;;;;;;;9.21;75.77;100798.06;226698;1200;140946;-73
2021/11/16 11:58:02;;;;;;;61.60;30.80;;;;;;;9.26;75.40;100788.09;226563;1200;141175;-73
2021/11/16 12:03:46;;;;;;;59.50;31.30;;;;;;;9.24;75.21;100784.80;229339;1199;140892;-75
2021/11/16 12:08:54;;;;;;;56.70;30.30;;;;;;;9.26;75.20;100776.83;228993;1200;141024;-75
2021/11/16 12:14:01;;;;;;;58.10;32.40;;;;;;;9.36;75.34;100761.14;229113;1199;140016;-77
2021/11/16 12:19:13;;;;;;;64.00;33.00;;;;;;;9.43;75.25;100760.30;229118;1199;139952;-76
2021/11/16 12:24:33;;;;;;;50.80;29.10;;;;;;;9.55;75.00;100753.96;228866;1199;141481;-78
2021/11/16 12:29:46;;;;;;;52.50;27.50;;;;;;;9.63;74.69;100746.31;227380;1200;142273;-75
2021/11/16 12:35:15;;;;;;;65.20;32.70;;;;;;;9.78;74.73;100747.18;226410;1200;141303;-74
2021/11/16 12:40:59;;;;;;;;;;;;;;;;;;;;;
2021/11/16 12:46:17;;;;;;;50.40;29.60;;;;;;;9.90;74.57;100743.41;226889;1199;140194;-71
2021/11/16 12:51:27;;;;;;;59.00;29.80;;;;;;;9.93;74.53;100725.79;227049;1200;140905;-75
2021/11/16 12:57:35;;;;;;;47.30;27.60;;;;;;;9.92;74.18;100714.60;228161;1199;140034;-73
2021/11/16 13:03:46;;;;;;;50.80;25.30;;;;;;;9.88;73.86;100709.60;227717;1200;140333;-73
2021/11/16 13:08:50;;;;;;;54.80;29.10;;;;;;;9.86;73.80;100708.41;227083;1199;140388;-73
2021/11/16 13:13:55;;;;;;;55.90;30.70;;;;;;;9.89;73.94;100705.75;227258;1199;222182;-74
2021/11/16 13:19:04;;;;;;;59.90;31.30;;;;;;;9.91;73.85;100698.38;227394;1200;140371;-73
2021/11/16 13:24:12;;;;;;;59.40;29.60;;;;;;;9.87;73.88;100693.91;226722;1200;140456;-74
2021/11/16 13:29:36;;;;;;;57.60;31.10;;;;;;;9.85;74.01;100689.94;227008;1199;141181;-73
2021/11/16 13:34:44;;;;;;;56.80;29.00;;;;;;;9.82;73.81;100693.55;227100;1200;140745;-74
2021/11/16 13:39:50;;;;;;;;;;;;;;;9.81;73.71;100688.63;226511;1200;140581;-73
2021/11/16 13:45:01;;;;;;;46.60;28.10;;;;;;;9.71;73.75;100689.68;227636;1200;127305;-73
2021/11/16 13:50:10;;;;;;;57.00;28.70;;;;;;;9.65;73.75;100687.63;228239;1199;142057;-72
2021/11/16 13:55:53;;;;;;;58.30;29.70;;;;;;;9.58;73.62;100690.20;228861;1199;140234;-74
2021/11/16 14:00:57;;;;;;;55.90;29.00;;;;;;;9.49;73.69;100685.70;228571;1199;139182;-73
2021/11/16 14:06:00;;;;;;;44.20;24.10;;;;;;;9.41;73.61;100680.17;228551;1199;141467;-73
2021/11/16 14:11:09;;;;;;;45.70;24.80;;;;;;;9.34;73.43;100671.61;227911;1200;140279;-74
2021/11/16 14:16:20;;;;;;;51.30;26.90;;;;;;;9.24;73.48;100675.77;229122;1199;140394;-73
2021/11/16 14:21:24;;;;;;;49.00;27.50;;;;;;;9.08;73.56;100675.71;229105;1199;141094;-73
2021/11/16 14:26:29;;;;;;;51.00;28.00;;;;;;;8.89;73.42;100675.39;226547;1200;140364;-72
2021/11/16 14:31:35;;;;;;;55.30;27.40;;;;;;;8.67;73.26;100665.34;227824;1200;161284;-73
2021/11/16 14:36:48;;;;;;;41.60;23.70;;;;;;;8.50;73.17;100665.28;226842;1199;139866;-72
2021/11/16 14:42:05;;;;;;;45.20;25.50;;;;;;;8.26;73.23;100664.78;226939;1199;140042;-72
2021/11/16 14:47:11;;;;;;;47.40;28.70;;;;;;;8.00;73.29;100662.50;228252;1200;140236;-73
2021/11/16 14:52:25;;;;;;;52.80;25.20;;;;;;;7.74;73.13;100651.92;227591;1199;139775;-72
2021/11/16 14:57:58;;;;;;;41.10;23.40;;;;;;;7.47;73.36;100652.98;226950;1199;140005;-71
2021/11/16 15:03:07;;;;;;;54.50;29.40;;;;;;;7.27;73.11;100655.88;227270;1200;140705;-72
2021/11/16 15:08:22;;;;;;;48.10;26.60;;;;;;;7.02;73.39;100653.16;226549;1200;140770;-72
2021/11/16 15:13:30;;;;;;;51.40;30.30;;;;;;;6.70;73.12;100648.91;226862;1199;139703;-72
2021/11/16 15:18:34;;;;;;;40.70;23.20;;;;;;;6.38;73.26;100644.75;227346;1199;141759;-72
2021/11/16 15:23:41;;;;;;;47.40;23.00;;;;;;;6.19;73.74;100649.38;226433;1200;141797;-71
2021/11/16 15:29:02;;;;;;;66.30;31.70;;;;;;;6.10;74.18;100643.41;227410;1199;140528;-72
2021/11/16 15:34:05;;;;;;;54.20;29.30;;;;;;;6.04;74.80;100645.37;228031;1199;139699;-70
2021/11/16 15:39:10;;;;;;;68.00;32.40;;;;;;;6.01;75.17;100643.41;227807;1199;142741;-70
2021/11/16 16:00:38;;;;;;;82.90;37.80;;;;;;;6.07;76.27;100643.38;227544;1200;140795;-70
2021/11/16 16:05:41;;;;;;;88.10;38.50;;;;;;;6.01;76.26;100638.05;227414;1199;141725;-70
2021/11/16 16:10:45;;;;;;;80.90;40.90;;;;;;;5.98;75.80;100643.17;227804;1200;140973;-71
2021/11/16 16:15:49;;;;;;;91.40;43.00;;;;;;;5.91;75.89;100635.40;229377;1199;141394;-70
2021/11/16 16:20:55;;;;;;;101.50;48.90;;;;;;;5.73;76.22;100633.33;228999;1199;141036;-71
2021/11/16 16:26:02;;;;;;;91.10;44.50;;;;;;;5.58;76.06;100633.70;229009;1199;139943;-70
2021/11/16 16:31:06;;;;;;;82.40;44.30;;;;;;;5.56;75.99;100634.45;229132;1200;142443;-71
2021/11/16 16:36:10;;;;;;;81.80;44.90;;;;;;;5.49;76.13;100631.39;228613;1199;140861;-69
2021/11/16 16:41:20;;;;;;;89.80;44.70;;;;;;;5.37;76.08;100630.88;227944;1199;139986;-71
2021/11/16 16:46:25;;;;;;;71.90;39.20;;;;;;;5.25;76.41;100627.13;228224;1200;139686;-70
2021/11/16 16:51:29;;;;;;;75.50;37.20;;;;;;;5.17;77.18;100624.54;228218;1199;140130;-70
2021/11/16 16:56:49;;;;;;;90.50;45.60;;;;;;;5.21;77.13;100617.52;228334;1199;140309;-70
2021/11/16 17:02:04;;;;;;;84.50;41.60;;;;;;;5.25;77.50;100606.75;227893;1199;143488;-71
2021/11/16 17:07:09;;;;;;;70.40;37.70;;;;;;;5.25;77.58;100603.70;227857;1199;140091;-70
2021/11/16 17:12:20;;;;;;;80.50;39.50;;;;;;;5.23;77.65;100604.27;226549;1199;141525;-71
2021/11/16 17:17:32;;;;;;;77.10;39.30;;;;;;;5.23;77.39;100599.01;226592;1200;140707;-70
2021/11/16 17:22:36;;;;;;;73.00;40.60;;;;;;;5.15;77.84;100597.00;227180;1199;141087;-71
2021/11/16 17:27:40;;;;;;;82.20;42.00;;;;;;;5.06;78.27;100591.46;226480;1199;141230;-70
2021/11/16 17:32:44;;;;;;;80.80;37.00;;;;;;;4.95;78.02;100585.89;226159;1200;139754;-69
2021/11/16 17:37:47;;;;;;;88.60;40.50;;;;;;;4.86;77.63;100575.34;226611;1200;141175;-69
2021/11/16 17:42:50;;;;;;;90.30;42.90;;;;;;;4.76;78.05;100567.45;226652;1199;139765;-70
2021/11/16 17:47:53;;;;;;;69.10;36.70;;;;;;;4.68;78.36;100557.73;226671;1199;140224;-70
2021/11/16 17:52:56;;;;;;;81.10;38.00;;;;;;;4.60;78.36;100556.14;228675;1199;139844;-70
2021/11/16 17:58:01;;;;;;;82.40;39.10;;;;;;;4.60;78.48;100551.79;226726;1200;140179;-68
2021/11/16 18:03:05;;;;;;;89.10;42.10;;;;;;;4.52;78.57;100552.15;227508;1199;140047;-70
2021/11/16 18:08:20;;;;;;;84.40;39.00;;;;;;;4.40;78.50;100545.63;227538;1200;139560;-70
2021/11/16 18:13:44;;;;;;;85.60;39.50;;;;;;;4.32;78.54;100542.06;227741;1199;139437;-70
2021/11/16 18:18:46;;;;;;;82.60;39.10;;;;;;;4.29;78.33;100535.95;229109;1199;140331;-70
2021/11/16 18:23:52;;;;;;;75.50;41.00;;;;;;;4.21;78.41;100528.80;228920;1199;140811;-70
2021/11/16 18:28:56;;;;;;;73.00;34.40;;;;;;;4.15;78.66;100527.86;229037;1199;141889;-71
2021/11/16 18:34:00;;;;;;;85.60;39.70;;;;;;;4.08;78.87;100528.16;228982;1199;140299;-70
2021/11/16 18:39:13;;;;;;;77.60;37.00;;;;;;;4.04;78.53;100530.65;227171;1199;140019;-68
2021/11/16 18:49:37;;;;;;;81.20;38.20;;;;;;;3.95;78.70;100519.73;228610;1199;142599;-71
2021/11/16 18:54:42;;;;;;;90.00;41.60;;;;;;;3.82;78.62;100511.98;227178;1199;140552;-67
2021/11/16 18:59:46;;;;;;;73.50;37.30;;;;;;;3.68;78.84;100514.14;226349;1200;142575;-69
2021/11/16 19:04:49;;;;;;;86.00;36.50;;;;;;;3.61;78.97;100515.37;226571;1200;141165;-70
2021/11/16 19:09:52;;;;;;;90.80;40.50;;;;;;;3.56;78.50;100509.05;227552;1199;142624;-69
2021/11/16 19:14:56;;;;;;;97.40;43.10;;;;;;;3.46;78.86;100515.83;226495;1199;141839;-68
2021/11/16 19:19:59;;;;;;;92.00;46.80;;;;;;;3.37;79.26;100517.27;226600;1199;140947;-69
2021/11/16 19:25:12;;;;;;;88.90;41.90;;;;;;;3.37;79.46;100514.86;226989;1200;141363;-69
2021/11/16 19:30:18;;;;;;;94.40;45.90;;;;;;;3.33;79.02;100516.91;227667;1200;141625;-69
2021/11/16 19:35:29;;;;;;;93.40;45.60;;;;;;;3.27;79.23;100520.57;226139;1200;141307;-69
2021/11/16 19:40:35;;;;;;;65.10;34.00;;;;;;;3.20;79.31;100522.65;226607;1199;140816;-69
2021/11/16 19:45:46;;;;;;;87.50;36.80;;;;;;;3.11;79.30;100523.02;226938;1199;140596;-69
2021/11/16 19:50:50;;;;;;;82.40;38.40;;;;;;;3.05;79.22;100525.08;226303;1200;142399;-68
2021/11/16 19:55:54;;;;;;;81.80;40.80;;;;;;;2.96;79.39;100519.48;226573;1199;141252;-68
2021/11/16 20:00:59;;;;;;;69.20;39.80;;;;;;;2.89;79.58;100522.36;227410;1200;140390;-69
2021/11/16 20:06:03;;;;;;;86.80;41.80;;;;;;;2.82;79.75;100520.71;227202;1200;140694;-68
2021/11/16 20:11:06;;;;;;;74.40;38.20;;;;;;;2.79;79.64;100521.38;229214;1199;140719;-69
2021/11/16 20:16:14;;;;;;;88.20;43.40;;;;;;;2.76;79.77;100521.66;228198;1199;140224;-69
2021/11/16 20:21:17;;;;;;;89.30;42.70;;;;;;;2.81;80.20;100526.22;229300;1199;141829;-69
2021/11/16 20:26:21;;;;;;;83.50;37.60;;;;;;;2.90;80.43;100522.98;228996;1199;142071;-69
2021/11/16 20:31:28;;;;;;;94.90;39.80;;;;;;;3.02;80.41;100518.05;227431;1199;140230;-68
2021/11/16 20:36:36;;;;;;;78.30;41.40;;;;;;;3.09;80.58;100515.73;228035;1200;140529;-69
2021/11/16 21:03:01;;;;;;;87.70;36.80;;;;;;;3.21;80.74;100508.69;226459;1199;140505;-70
2021/11/16 21:08:07;;;;;;;68.00;36.80;;;;;;;3.24;80.76;100499.77;227254;1199;140710;-70
2021/11/16 21:13:11;;;;;;;;;;;;;;;3.25;80.80;100499.49;227030;1199;142485;-72
2021/11/16 21:18:14;;;;;;;51.30;30.20;;;;;;;3.20;80.99;100496.34;227111;1200;125834;-73
2021/11/16 21:23:21;;;;;;;72.50;34.60;;;;;;;3.18;81.12;100490.59;226730;1199;139516;-72
2021/11/16 21:28:51;;;;;;;68.50;35.20;;;;;;;3.24;81.27;100494.81;226705;1200;140825;-69
2021/11/16 21:33:58;;;;;;;47.90;26.10;;;;;;;3.29;81.10;100497.45;227448;1200;141065;-70
2021/11/16 21:39:18;;;;;;;118.40;53.70;;;;;;;3.25;81.18;100499.80;226737;1200;141879;-68
2021/11/16 21:44:21;;;;;;;69.70;35.50;;;;;;;3.28;81.38;100497.41;227642;1199;141178;-70
2021/11/16 21:49:24;;;;;;;62.10;34.40;;;;;;;3.36;81.37;100494.05;227570;1199;140203;-69
2021/11/16 21:54:27;;;;;;;57.40;30.90;;;;;;;3.33;81.19;100491.70;228261;1199;140526;-70
2021/11/16 21:59:30;;;;;;;51.00;29.60;;;;;;;3.26;81.29;100480.39;229091;1199;140224;-72
2021/11/16 22:04:52;;;;;;;61.10;31.50;;;;;;;3.28;81.29;100480.75;228794;1199;141705;-72
2021/11/16 22:09:55;;;;;;;56.70;33.40;;;;;;;3.36;81.21;100478.61;228851;1199;140951;-72
2021/11/16 22:15:02;;;;;;;48.50;28.90;;;;;;;3.38;81.33;100475.89;229126;1199;140482;-73
2021/11/16 22:20:08;;;;;;;55.70;28.70;;;;;;;3.41;81.28;100479.27;227773;1199;139874;-70
2021/11/16 22:25:12;;;;;;;54.80;30.80;;;;;;;3.50;81.32;100483.34;226312;1199;141537;-69
2021/11/16 22:30:25;;;;;;;59.00;31.30;;;;;;;3.50;81.40;100484.95;229146;1199;141178;-72
2021/11/16 22:35:29;;;;;;;48.10;25.50;;;;;;;3.45;81.37;100484.30;228707;1199;139587;-73
2021/11/16 22:40:54;;;;;;;64.70;29.60;;;;;;;3.40;81.16;100489.20;229048;1199;140334;-73
2021/11/16 22:46:06;;;;;;;61.00;31.10;;;;;;;3.40;81.03;100484.52;229003;1200;140774;-71
2021/11/16 22:51:13;;;;;;;53.20;30.10;;;;;;;3.37;81.03;100480.81;226574;1200;139931;-71
2021/11/16 22:56:16;;;;;;;63.40;29.70;;;;;;;3.37;81.48;100465.59;228740;1200;140563;-72
